aviador You're here:

YBCG Decoded Metar

COOLANGATTA in AUSTRALIA
Report Time2017-08-18 23:00:00
UTC Time2017-08-18 23:45:44
Flight Rules vfr VFR
Wind220° at 14 kt
W.Decomp.*RWY 17: 10.9 kt HW 8.8 kt RCW
RWY 14: 5.0 kt HW 13.1 kt RCW
W.Rank220° ranks 10
Current wind is above 220° avg. (4.9)
Visibility9999 m
Phenomena:N/A
Clouds:N/A
Expected CloudBase > 8,000 ft AGL from Temp-Dew spread
CeilingNone
Temp16°C (ISA +1)
Dew Point-4°C (25% RH)
AAT8.5°C
QNH1015 hPa
Density Alt141 ft
Elevation20 ft
Report Wrong Elevation
Raw Report
YBCG 182300Z AUTO 22014KT 9999 // NCD 16/M04 Q1015
RF00.0/000.0=

Extra information for YBCG:More info

Metar Taf Metar & Taf Last 4 Metars F.Rules Stats Wind Profile Meteogram Temp Stats Airport Information Weather charts Add Link Nearby VenuesMetar ALERT Operation Metar Decoded Social comments